sensor_id;sensor_type;location;lat;lon;timestamp;P1;durP1;ratioP1;P2;durP2;ratioP2
64387;SDS011;50709;52.648;4.764;2023-07-29T00:01:33;5.63;;;2.67;;
64387;SDS011;50709;52.648;4.764;2023-07-29T00:04:19;4.07;;;2.40;;
64387;SDS011;50709;52.648;4.764;2023-07-29T00:06:45;7.25;;;2.92;;
64387;SDS011;50709;52.648;4.764;2023-07-29T00:09:10;9.30;;;2.60;;
64387;SDS011;50709;52.648;4.764;2023-07-29T00:11:36;5.15;;;2.20;;
64387;SDS011;50709;52.648;4.764;2023-07-29T00:14:01;4.97;;;2.30;;
64387;SDS011;50709;52.648;4.764;2023-07-29T00:16:27;4.43;;;2.33;;
64387;SDS011;50709;52.648;4.764;2023-07-29T00:18:52;8.45;;;2.40;;
64387;SDS011;50709;52.648;4.764;2023-07-29T00:21:18;4.68;;;2.22;;
64387;SDS011;50709;52.648;4.764;2023-07-29T00:23:44;5.13;;;2.78;;
64387;SDS011;50709;52.648;4.764;2023-07-29T00:26:10;6.18;;;2.25;;
64387;SDS011;50709;52.648;4.764;2023-07-29T00:28:35;3.35;;;2.05;;
64387;SDS011;50709;52.648;4.764;2023-07-29T00:31:01;6.20;;;2.15;;
64387;SDS011;50709;52.648;4.764;2023-07-29T00:33:27;5.45;;;1.92;;
64387;SDS011;50709;52.648;4.764;2023-07-29T00:35:52;4.70;;;2.28;;
64387;SDS011;50709;52.648;4.764;2023-07-29T00:38:18;3.67;;;1.90;;
64387;SDS011;50709;52.648;4.764;2023-07-29T00:40:43;3.42;;;2.17;;
64387;SDS011;50709;52.648;4.764;2023-07-29T00:43:08;4.63;;;2.20;;
64387;SDS011;50709;52.648;4.764;2023-07-29T00:45:34;5.38;;;2.10;;
64387;SDS011;50709;52.648;4.764;2023-07-29T00:48:00;5.85;;;2.15;;
64387;SDS011;50709;52.648;4.764;2023-07-29T00:50:26;4.68;;;2.25;;
64387;SDS011;50709;52.648;4.764;2023-07-29T00:52:54;4.40;;;2.17;;
64387;SDS011;50709;52.648;4.764;2023-07-29T00:55:20;5.47;;;1.95;;
64387;SDS011;50709;52.648;4.764;2023-07-29T00:57:45;4.15;;;2.10;;
64387;SDS011;50709;52.648;4.764;2023-07-29T01:00:13;3.80;;;2.00;;
64387;SDS011;50709;52.648;4.764;2023-07-29T01:02:39;4.35;;;2.13;;
64387;SDS011;50709;52.648;4.764;2023-07-29T01:05:05;5.93;;;2.00;;
64387;SDS011;50709;52.648;4.764;2023-07-29T01:10:19;6.13;;;2.25;;
64387;SDS011;50709;52.648;4.764;2023-07-29T01:13:14;4.30;;;2.30;;
64387;SDS011;50709;52.648;4.764;2023-07-29T01:15:48;4.70;;;2.00;;
64387;SDS011;50709;52.648;4.764;2023-07-29T01:18:22;5.88;;;2.10;;
64387;SDS011;50709;52.648;4.764;2023-07-29T01:20:58;5.85;;;2.45;;
64387;SDS011;50709;52.648;4.764;2023-07-29T01:23:31;4.30;;;2.05;;
64387;SDS011;50709;52.648;4.764;2023-07-29T01:25:57;4.40;;;2.40;;
64387;SDS011;50709;52.648;4.764;2023-07-29T01:28:23;4.15;;;2.08;;
64387;SDS011;50709;52.648;4.764;2023-07-29T01:30:49;4.07;;;2.20;;
64387;SDS011;50709;52.648;4.764;2023-07-29T01:33:25;6.30;;;2.28;;
64387;SDS011;50709;52.648;4.764;2023-07-29T01:38:29;4.85;;;2.13;;
64387;SDS011;50709;52.648;4.764;2023-07-29T01:41:03;3.40;;;2.03;;
64387;SDS011;50709;52.648;4.764;2023-07-29T01:43:32;3.83;;;2.23;;
64387;SDS011;50709;52.648;4.764;2023-07-29T01:45:58;4.13;;;2.28;;
64387;SDS011;50709;52.648;4.764;2023-07-29T01:48:26;3.78;;;2.10;;
64387;SDS011;50709;52.648;4.764;2023-07-29T01:50:52;3.72;;;2.20;;
64387;SDS011;50709;52.648;4.764;2023-07-29T01:53:18;6.28;;;2.17;;
64387;SDS011;50709;52.648;4.764;2023-07-29T01:55:43;4.25;;;2.05;;
64387;SDS011;50709;52.648;4.764;2023-07-29T01:58:10;6.25;;;2.72;;
64387;SDS011;50709;52.648;4.764;2023-07-29T02:00:35;7.50;;;2.20;;
64387;SDS011;50709;52.648;4.764;2023-07-29T02:03:01;5.28;;;2.30;;
64387;SDS011;50709;52.648;4.764;2023-07-29T02:05:26;4.13;;;2.10;;
64387;SDS011;50709;52.648;4.764;2023-07-29T02:07:51;6.60;;;2.35;;
64387;SDS011;50709;52.648;4.764;2023-07-29T02:10:17;4.82;;;2.35;;
64387;SDS011;50709;52.648;4.764;2023-07-29T02:12:42;5.13;;;2.20;;
64387;SDS011;50709;52.648;4.764;2023-07-29T02:15:08;5.57;;;2.20;;
64387;SDS011;50709;52.648;4.764;2023-07-29T02:17:34;5.25;;;2.10;;
64387;SDS011;50709;52.648;4.764;2023-07-29T02:20:00;4.78;;;2.50;;
64387;SDS011;50709;52.648;4.764;2023-07-29T02:22:25;5.60;;;2.55;;
64387;SDS011;50709;52.648;4.764;2023-07-29T02:24:51;5.97;;;2.30;;
64387;SDS011;50709;52.648;4.764;2023-07-29T02:27:16;3.95;;;2.20;;
64387;SDS011;50709;52.648;4.764;2023-07-29T02:29:42;5.95;;;2.50;;
64387;SDS011;50709;52.648;4.764;2023-07-29T02:32:07;6.90;;;2.40;;
64387;SDS011;50709;52.648;4.764;2023-07-29T02:34:33;7.60;;;2.42;;
64387;SDS011;50709;52.648;4.764;2023-07-29T02:37:01;6.53;;;3.72;;
64387;SDS011;50709;52.648;4.764;2023-07-29T02:39:27;7.47;;;2.45;;
64387;SDS011;50709;52.648;4.764;2023-07-29T02:41:52;8.10;;;2.53;;
64387;SDS011;50709;52.648;4.764;2023-07-29T02:44:18;4.40;;;2.15;;
64387;SDS011;50709;52.648;4.764;2023-07-29T02:46:45;4.40;;;2.30;;
64387;SDS011;50709;52.648;4.764;2023-07-29T02:49:10;5.40;;;2.50;;
64387;SDS011;50709;52.648;4.764;2023-07-29T02:51:35;7.57;;;2.88;;
64387;SDS011;50709;52.648;4.764;2023-07-29T02:54:01;6.88;;;2.80;;
64387;SDS011;50709;52.648;4.764;2023-07-29T02:56:26;5.80;;;2.72;;
64387;SDS011;50709;52.648;4.764;2023-07-29T02:58:52;6.65;;;3.42;;
64387;SDS011;50709;52.648;4.764;2023-07-29T03:01:18;6.40;;;2.80;;
64387;SDS011;50709;52.648;4.764;2023-07-29T03:03:44;6.20;;;2.28;;
64387;SDS011;50709;52.648;4.764;2023-07-29T03:06:12;5.82;;;2.50;;
64387;SDS011;50709;52.648;4.764;2023-07-29T03:08:58;6.15;;;2.67;;
64387;SDS011;50709;52.648;4.764;2023-07-29T03:11:24;6.03;;;2.47;;
64387;SDS011;50709;52.648;4.764;2023-07-29T03:13:50;6.68;;;2.63;;
64387;SDS011;50709;52.648;4.764;2023-07-29T03:16:15;4.95;;;2.55;;
64387;SDS011;50709;52.648;4.764;2023-07-29T03:18:43;4.82;;;2.50;;
64387;SDS011;50709;52.648;4.764;2023-07-29T03:21:08;5.80;;;2.40;;
64387;SDS011;50709;52.648;4.764;2023-07-29T03:23:34;6.10;;;2.45;;
64387;SDS011;50709;52.648;4.764;2023-07-29T03:26:01;5.20;;;2.45;;
64387;SDS011;50709;52.648;4.764;2023-07-29T03:28:30;6.35;;;2.45;;
64387;SDS011;50709;52.648;4.764;2023-07-29T03:30:58;4.05;;;2.33;;
64387;SDS011;50709;52.648;4.764;2023-07-29T03:33:24;6.13;;;2.33;;
64387;SDS011;50709;52.648;4.764;2023-07-29T03:35:51;5.10;;;2.42;;
64387;SDS011;50709;52.648;4.764;2023-07-29T03:38:17;7.18;;;2.40;;
64387;SDS011;50709;52.648;4.764;2023-07-29T03:40:43;4.00;;;2.30;;
64387;SDS011;50709;52.648;4.764;2023-07-29T03:43:09;6.88;;;2.20;;
64387;SDS011;50709;52.648;4.764;2023-07-29T03:45:35;5.30;;;2.63;;
64387;SDS011;50709;52.648;4.764;2023-07-29T03:48:01;4.82;;;2.38;;
64387;SDS011;50709;52.648;4.764;2023-07-29T03:50:28;4.22;;;2.25;;
64387;SDS011;50709;52.648;4.764;2023-07-29T03:52:54;4.78;;;2.38;;
64387;SDS011;50709;52.648;4.764;2023-07-29T03:55:20;5.70;;;2.40;;
64387;SDS011;50709;52.648;4.764;2023-07-29T03:57:45;7.35;;;2.75;;
64387;SDS011;50709;52.648;4.764;2023-07-29T04:00:11;4.60;;;2.45;;
64387;SDS011;50709;52.648;4.764;2023-07-29T04:02:36;5.53;;;2.50;;
64387;SDS011;50709;52.648;4.764;2023-07-29T04:05:03;5.07;;;2.33;;
64387;SDS011;50709;52.648;4.764;2023-07-29T04:07:29;4.60;;;2.10;;
64387;SDS011;50709;52.648;4.764;2023-07-29T04:09:55;8.45;;;2.65;;
64387;SDS011;50709;52.648;4.764;2023-07-29T04:12:20;6.13;;;2.33;;
64387;SDS011;50709;52.648;4.764;2023-07-29T04:14:46;6.47;;;2.65;;
64387;SDS011;50709;52.648;4.764;2023-07-29T04:17:12;5.55;;;2.35;;
64387;SDS011;50709;52.648;4.764;2023-07-29T04:19:37;8.82;;;2.80;;
64387;SDS011;50709;52.648;4.764;2023-07-29T04:22:03;6.35;;;2.40;;
64387;SDS011;50709;52.648;4.764;2023-07-29T04:24:29;6.90;;;3.35;;
64387;SDS011;50709;52.648;4.764;2023-07-29T04:26:54;4.35;;;2.13;;
64387;SDS011;50709;52.648;4.764;2023-07-29T04:29:19;7.85;;;2.53;;
64387;SDS011;50709;52.648;4.764;2023-07-29T04:31:45;6.65;;;2.42;;
64387;SDS011;50709;52.648;4.764;2023-07-29T04:34:11;5.70;;;2.40;;
64387;SDS011;50709;52.648;4.764;2023-07-29T04:36:36;6.35;;;2.60;;
64387;SDS011;50709;52.648;4.764;2023-07-29T04:39:01;8.85;;;2.67;;
64387;SDS011;50709;52.648;4.764;2023-07-29T04:41:27;4.28;;;2.38;;
64387;SDS011;50709;52.648;4.764;2023-07-29T04:43:52;6.35;;;2.50;;
64387;SDS011;50709;52.648;4.764;2023-07-29T04:46:18;6.25;;;2.38;;
64387;SDS011;50709;52.648;4.764;2023-07-29T04:48:43;6.95;;;2.58;;
64387;SDS011;50709;52.648;4.764;2023-07-29T04:51:09;7.15;;;2.47;;
64387;SDS011;50709;52.648;4.764;2023-07-29T04:53:34;7.10;;;2.42;;
64387;SDS011;50709;52.648;4.764;2023-07-29T04:56:01;6.43;;;1.92;;
64387;SDS011;50709;52.648;4.764;2023-07-29T04:58:27;4.00;;;2.05;;
64387;SDS011;50709;52.648;4.764;2023-07-29T05:00:54;7.82;;;2.75;;
64387;SDS011;50709;52.648;4.764;2023-07-29T05:03:20;4.93;;;2.40;;
64387;SDS011;50709;52.648;4.764;2023-07-29T05:05:46;6.03;;;2.70;;
64387;SDS011;50709;52.648;4.764;2023-07-29T05:08:11;6.35;;;2.30;;
64387;SDS011;50709;52.648;4.764;2023-07-29T05:10:36;6.82;;;2.63;;
64387;SDS011;50709;52.648;4.764;2023-07-29T05:13:02;6.78;;;2.38;;
64387;SDS011;50709;52.648;4.764;2023-07-29T05:15:27;5.97;;;2.38;;
64387;SDS011;50709;52.648;4.764;2023-07-29T05:17:53;8.00;;;2.58;;
64387;SDS011;50709;52.648;4.764;2023-07-29T05:20:18;5.45;;;2.30;;
64387;SDS011;50709;52.648;4.764;2023-07-29T05:22:44;5.78;;;2.30;;
64387;SDS011;50709;52.648;4.764;2023-07-29T05:25:09;3.78;;;2.00;;
64387;SDS011;50709;52.648;4.764;2023-07-29T05:27:35;5.18;;;2.25;;
64387;SDS011;50709;52.648;4.764;2023-07-29T05:30:00;4.82;;;2.30;;
64387;SDS011;50709;52.648;4.764;2023-07-29T05:32:25;6.30;;;2.42;;
64387;SDS011;50709;52.648;4.764;2023-07-29T05:34:51;4.95;;;1.83;;
64387;SDS011;50709;52.648;4.764;2023-07-29T05:37:16;4.65;;;2.50;;
64387;SDS011;50709;52.648;4.764;2023-07-29T05:39:42;6.10;;;2.45;;
64387;SDS011;50709;52.648;4.764;2023-07-29T05:42:07;5.28;;;2.28;;
64387;SDS011;50709;52.648;4.764;2023-07-29T05:44:33;5.20;;;2.75;;
64387;SDS011;50709;52.648;4.764;2023-07-29T05:46:58;5.88;;;2.60;;
64387;SDS011;50709;52.648;4.764;2023-07-29T05:49:24;5.60;;;2.97;;
64387;SDS011;50709;52.648;4.764;2023-07-29T05:51:49;10.35;;;2.90;;
64387;SDS011;50709;52.648;4.764;2023-07-29T05:54:17;7.10;;;2.60;;
64387;SDS011;50709;52.648;4.764;2023-07-29T05:57:03;6.10;;;2.58;;
64387;SDS011;50709;52.648;4.764;2023-07-29T05:59:28;6.38;;;2.60;;
64387;SDS011;50709;52.648;4.764;2023-07-29T06:01:54;7.47;;;2.47;;
64387;SDS011;50709;52.648;4.764;2023-07-29T06:04:20;7.05;;;2.63;;
64387;SDS011;50709;52.648;4.764;2023-07-29T06:06:45;6.75;;;2.30;;
64387;SDS011;50709;52.648;4.764;2023-07-29T06:09:11;5.95;;;2.50;;
64387;SDS011;50709;52.648;4.764;2023-07-29T06:11:38;7.10;;;2.80;;
64387;SDS011;50709;52.648;4.764;2023-07-29T06:14:03;6.60;;;2.90;;
64387;SDS011;50709;52.648;4.764;2023-07-29T06:16:28;5.72;;;2.40;;
64387;SDS011;50709;52.648;4.764;2023-07-29T06:18:54;6.63;;;2.38;;
64387;SDS011;50709;52.648;4.764;2023-07-29T06:21:19;5.50;;;2.42;;
64387;SDS011;50709;52.648;4.764;2023-07-29T06:23:45;5.07;;;2.63;;
64387;SDS011;50709;52.648;4.764;2023-07-29T06:26:11;6.85;;;2.60;;
64387;SDS011;50709;52.648;4.764;2023-07-29T06:28:36;3.67;;;2.28;;
64387;SDS011;50709;52.648;4.764;2023-07-29T06:31:02;6.20;;;2.50;;
64387;SDS011;50709;52.648;4.764;2023-07-29T06:33:27;6.22;;;2.80;;
64387;SDS011;50709;52.648;4.764;2023-07-29T06:35:53;6.88;;;2.58;;
64387;SDS011;50709;52.648;4.764;2023-07-29T06:38:18;9.93;;;3.13;;
64387;SDS011;50709;52.648;4.764;2023-07-29T06:40:47;6.00;;;2.38;;
64387;SDS011;50709;52.648;4.764;2023-07-29T06:43:13;5.40;;;2.70;;
64387;SDS011;50709;52.648;4.764;2023-07-29T06:45:38;6.60;;;3.03;;
64387;SDS011;50709;52.648;4.764;2023-07-29T06:48:04;6.30;;;2.60;;
64387;SDS011;50709;52.648;4.764;2023-07-29T06:50:29;6.72;;;2.58;;
64387;SDS011;50709;52.648;4.764;2023-07-29T06:52:59;10.02;;;3.15;;
64387;SDS011;50709;52.648;4.764;2023-07-29T06:55:25;5.93;;;2.67;;
64387;SDS011;50709;52.648;4.764;2023-07-29T06:57:50;6.97;;;2.45;;
64387;SDS011;50709;52.648;4.764;2023-07-29T07:00:16;4.88;;;2.60;;
64387;SDS011;50709;52.648;4.764;2023-07-29T07:02:41;5.00;;;2.30;;
64387;SDS011;50709;52.648;4.764;2023-07-29T07:05:27;4.43;;;2.25;;
64387;SDS011;50709;52.648;4.764;2023-07-29T07:07:52;5.18;;;2.40;;
64387;SDS011;50709;52.648;4.764;2023-07-29T07:10:19;4.72;;;2.47;;
64387;SDS011;50709;52.648;4.764;2023-07-29T07:12:44;6.57;;;2.72;;
64387;SDS011;50709;52.648;4.764;2023-07-29T07:15:14;10.02;;;2.67;;
64387;SDS011;50709;52.648;4.764;2023-07-29T07:17:39;7.80;;;5.03;;
64387;SDS011;50709;52.648;4.764;2023-07-29T07:20:05;6.43;;;2.50;;
64387;SDS011;50709;52.648;4.764;2023-07-29T07:22:31;5.55;;;2.95;;
64387;SDS011;50709;52.648;4.764;2023-07-29T07:24:56;6.82;;;2.50;;
64387;SDS011;50709;52.648;4.764;2023-07-29T07:27:22;4.75;;;2.08;;
64387;SDS011;50709;52.648;4.764;2023-07-29T07:29:47;6.85;;;2.40;;
64387;SDS011;50709;52.648;4.764;2023-07-29T07:32:13;7.82;;;2.55;;
64387;SDS011;50709;52.648;4.764;2023-07-29T07:34:38;5.63;;;2.28;;
64387;SDS011;50709;52.648;4.764;2023-07-29T07:37:03;4.85;;;2.20;;
64387;SDS011;50709;52.648;4.764;2023-07-29T07:39:29;4.18;;;2.33;;
64387;SDS011;50709;52.648;4.764;2023-07-29T07:41:56;6.15;;;2.28;;
64387;SDS011;50709;52.648;4.764;2023-07-29T07:44:21;5.65;;;2.55;;
64387;SDS011;50709;52.648;4.764;2023-07-29T07:46:47;7.63;;;2.33;;
64387;SDS011;50709;52.648;4.764;2023-07-29T07:49:12;7.90;;;2.40;;
64387;SDS011;50709;52.648;4.764;2023-07-29T07:51:38;7.35;;;2.60;;
64387;SDS011;50709;52.648;4.764;2023-07-29T07:54:04;7.03;;;2.30;;
64387;SDS011;50709;52.648;4.764;2023-07-29T07:56:29;10.68;;;2.33;;
64387;SDS011;50709;52.648;4.764;2023-07-29T07:58:55;6.18;;;2.83;;
64387;SDS011;50709;52.648;4.764;2023-07-29T08:01:20;4.40;;;2.22;;
64387;SDS011;50709;52.648;4.764;2023-07-29T08:03:46;6.15;;;2.28;;
64387;SDS011;50709;52.648;4.764;2023-07-29T08:06:11;3.97;;;2.08;;
64387;SDS011;50709;52.648;4.764;2023-07-29T08:08:36;7.50;;;2.28;;
64387;SDS011;50709;52.648;4.764;2023-07-29T08:11:02;7.75;;;2.00;;
64387;SDS011;50709;52.648;4.764;2023-07-29T08:13:27;6.28;;;2.33;;
64387;SDS011;50709;52.648;4.764;2023-07-29T08:15:53;5.88;;;2.30;;
64387;SDS011;50709;52.648;4.764;2023-07-29T08:18:18;6.30;;;2.42;;
64387;SDS011;50709;52.648;4.764;2023-07-29T08:20:57;7.47;;;2.53;;
64387;SDS011;50709;52.648;4.764;2023-07-29T08:23:24;4.82;;;2.40;;
64387;SDS011;50709;52.648;4.764;2023-07-29T08:25:52;6.72;;;2.85;;
64387;SDS011;50709;52.648;4.764;2023-07-29T08:28:27;6.53;;;2.30;;
64387;SDS011;50709;52.648;4.764;2023-07-29T08:31:02;8.02;;;2.85;;
64387;SDS011;50709;52.648;4.764;2023-07-29T08:33:28;6.97;;;2.38;;
64387;SDS011;50709;52.648;4.764;2023-07-29T08:36:14;6.18;;;2.60;;
64387;SDS011;50709;52.648;4.764;2023-07-29T08:38:40;8.60;;;2.70;;
64387;SDS011;50709;52.648;4.764;2023-07-29T08:44:22;6.53;;;2.50;;
64387;SDS011;50709;52.648;4.764;2023-07-29T08:46:49;5.15;;;2.65;;
64387;SDS011;50709;52.648;4.764;2023-07-29T08:49:16;7.68;;;2.60;;
64387;SDS011;50709;52.648;4.764;2023-07-29T08:51:46;5.32;;;3.00;;
64387;SDS011;50709;52.648;4.764;2023-07-29T08:54:16;10.85;;;2.88;;
64387;SDS011;50709;52.648;4.764;2023-07-29T08:56:42;7.90;;;3.13;;
64387;SDS011;50709;52.648;4.764;2023-07-29T08:59:10;6.43;;;2.88;;
64387;SDS011;50709;52.648;4.764;2023-07-29T09:01:39;5.47;;;3.10;;
64387;SDS011;50709;52.648;4.764;2023-07-29T09:04:04;6.68;;;2.88;;
64387;SDS011;50709;52.648;4.764;2023-07-29T09:06:50;5.60;;;3.15;;
64387;SDS011;50709;52.648;4.764;2023-07-29T09:09:22;7.85;;;2.95;;
64387;SDS011;50709;52.648;4.764;2023-07-29T09:11:47;8.27;;;3.55;;
64387;SDS011;50709;52.648;4.764;2023-07-29T09:14:13;7.72;;;3.20;;
64387;SDS011;50709;52.648;4.764;2023-07-29T09:16:58;10.88;;;4.25;;
64387;SDS011;50709;52.648;4.764;2023-07-29T09:19:47;10.80;;;4.43;;
64387;SDS011;50709;52.648;4.764;2023-07-29T09:22:22;10.73;;;3.75;;
64387;SDS011;50709;52.648;4.764;2023-07-29T09:24:47;7.95;;;3.40;;
64387;SDS011;50709;52.648;4.764;2023-07-29T09:27:25;9.98;;;3.70;;
64387;SDS011;50709;52.648;4.764;2023-07-29T09:29:52;8.30;;;3.97;;
64387;SDS011;50709;52.648;4.764;2023-07-29T09:32:21;10.93;;;4.03;;
64387;SDS011;50709;52.648;4.764;2023-07-29T09:34:48;7.53;;;3.75;;
64387;SDS011;50709;52.648;4.764;2023-07-29T09:37:17;11.00;;;4.10;;
64387;SDS011;50709;52.648;4.764;2023-07-29T09:39:46;9.52;;;3.97;;
64387;SDS011;50709;52.648;4.764;2023-07-29T09:42:21;9.25;;;4.03;;
64387;SDS011;50709;52.648;4.764;2023-07-29T09:45:07;9.32;;;3.50;;
64387;SDS011;50709;52.648;4.764;2023-07-29T09:47:33;10.40;;;4.05;;
64387;SDS011;50709;52.648;4.764;2023-07-29T09:49:59;9.95;;;4.32;;
64387;SDS011;50709;52.648;4.764;2023-07-29T09:52:24;11.77;;;4.28;;
64387;SDS011;50709;52.648;4.764;2023-07-29T09:55:13;10.32;;;3.80;;
64387;SDS011;50709;52.648;4.764;2023-07-29T09:57:42;9.35;;;3.95;;
64387;SDS011;50709;52.648;4.764;2023-07-29T10:00:10;8.98;;;3.85;;
64387;SDS011;50709;52.648;4.764;2023-07-29T10:02:37;8.02;;;3.90;;
64387;SDS011;50709;52.648;4.764;2023-07-29T10:05:04;9.68;;;3.55;;
64387;SDS011;50709;52.648;4.764;2023-07-29T10:07:33;9.13;;;3.78;;
64387;SDS011;50709;52.648;4.764;2023-07-29T10:10:02;6.43;;;3.22;;
64387;SDS011;50709;52.648;4.764;2023-07-29T10:12:30;6.28;;;3.20;;
64387;SDS011;50709;52.648;4.764;2023-07-29T10:14:58;7.03;;;3.17;;
64387;SDS011;50709;52.648;4.764;2023-07-29T10:17:25;8.48;;;3.10;;
64387;SDS011;50709;52.648;4.764;2023-07-29T10:19:51;7.45;;;3.30;;
64387;SDS011;50709;52.648;4.764;2023-07-29T10:22:18;7.53;;;3.55;;
64387;SDS011;50709;52.648;4.764;2023-07-29T10:24:45;7.88;;;3.67;;
64387;SDS011;50709;52.648;4.764;2023-07-29T10:27:14;6.35;;;3.40;;
64387;SDS011;50709;52.648;4.764;2023-07-29T10:29:42;9.55;;;3.72;;
64387;SDS011;50709;52.648;4.764;2023-07-29T10:32:10;9.45;;;3.80;;
64387;SDS011;50709;52.648;4.764;2023-07-29T10:34:36;7.03;;;3.13;;
64387;SDS011;50709;52.648;4.764;2023-07-29T10:37:04;7.15;;;3.22;;
64387;SDS011;50709;52.648;4.764;2023-07-29T10:39:37;7.50;;;3.70;;
64387;SDS011;50709;52.648;4.764;2023-07-29T10:42:05;10.25;;;3.40;;
64387;SDS011;50709;52.648;4.764;2023-07-29T10:44:52;6.70;;;3.33;;
64387;SDS011;50709;52.648;4.764;2023-07-29T10:47:24;7.95;;;3.17;;
64387;SDS011;50709;52.648;4.764;2023-07-29T10:49:55;6.43;;;3.28;;
64387;SDS011;50709;52.648;4.764;2023-07-29T10:55:24;6.20;;;3.20;;
64387;SDS011;50709;52.648;4.764;2023-07-29T10:57:50;7.43;;;3.28;;
64387;SDS011;50709;52.648;4.764;2023-07-29T11:00:15;6.70;;;3.28;;
64387;SDS011;50709;52.648;4.764;2023-07-29T11:02:44;8.27;;;3.55;;
64387;SDS011;50709;52.648;4.764;2023-07-29T11:05:25;9.55;;;3.28;;
64387;SDS011;50709;52.648;4.764;2023-07-29T11:07:50;8.55;;;3.00;;
64387;SDS011;50709;52.648;4.764;2023-07-29T11:10:15;8.75;;;3.47;;
64387;SDS011;50709;52.648;4.764;2023-07-29T11:15:17;5.83;;;3.00;;
64387;SDS011;50709;52.648;4.764;2023-07-29T11:17:51;6.05;;;2.47;;
64387;SDS011;50709;52.648;4.764;2023-07-29T11:20:24;7.90;;;3.15;;
64387;SDS011;50709;52.648;4.764;2023-07-29T11:22:51;7.18;;;2.78;;
64387;SDS011;50709;52.648;4.764;2023-07-29T11:25:18;7.45;;;2.88;;
64387;SDS011;50709;52.648;4.764;2023-07-29T11:27:44;4.38;;;2.47;;
64387;SDS011;50709;52.648;4.764;2023-07-29T11:30:11;7.20;;;2.72;;
64387;SDS011;50709;52.648;4.764;2023-07-29T11:32:39;4.82;;;2.70;;
64387;SDS011;50709;52.648;4.764;2023-07-29T11:35:06;4.93;;;2.78;;
64387;SDS011;50709;52.648;4.764;2023-07-29T11:37:34;6.10;;;2.80;;
64387;SDS011;50709;52.648;4.764;2023-07-29T11:40:00;7.50;;;3.45;;
64387;SDS011;50709;52.648;4.764;2023-07-29T11:42:27;4.63;;;2.78;;
64387;SDS011;50709;52.648;4.764;2023-07-29T11:44:55;6.63;;;2.92;;
64387;SDS011;50709;52.648;4.764;2023-07-29T11:47:22;4.28;;;2.15;;
64387;SDS011;50709;52.648;4.764;2023-07-29T11:49:47;3.72;;;2.28;;
64387;SDS011;50709;52.648;4.764;2023-07-29T11:52:13;5.70;;;2.78;;
64387;SDS011;50709;52.648;4.764;2023-07-29T11:54:39;7.13;;;3.17;;
64387;SDS011;50709;52.648;4.764;2023-07-29T11:57:10;5.65;;;2.72;;
64387;SDS011;50709;52.648;4.764;2023-07-29T11:59:37;5.65;;;2.47;;
64387;SDS011;50709;52.648;4.764;2023-07-29T12:02:08;8.13;;;3.70;;
64387;SDS011;50709;52.648;4.764;2023-07-29T12:04:39;5.45;;;2.60;;
64387;SDS011;50709;52.648;4.764;2023-07-29T12:07:06;8.32;;;3.05;;
64387;SDS011;50709;52.648;4.764;2023-07-29T12:09:36;7.32;;;2.58;;
64387;SDS011;50709;52.648;4.764;2023-07-29T12:12:05;8.88;;;2.83;;
64387;SDS011;50709;52.648;4.764;2023-07-29T12:14:31;5.63;;;2.55;;
64387;SDS011;50709;52.648;4.764;2023-07-29T12:16:59;5.68;;;2.47;;
64387;SDS011;50709;52.648;4.764;2023-07-29T12:19:33;4.18;;;2.40;;
64387;SDS011;50709;52.648;4.764;2023-07-29T12:22:00;6.85;;;2.70;;
64387;SDS011;50709;52.648;4.764;2023-07-29T12:24:27;4.45;;;2.28;;
64387;SDS011;50709;52.648;4.764;2023-07-29T12:26:54;5.25;;;2.30;;
64387;SDS011;50709;52.648;4.764;2023-07-29T12:29:20;5.00;;;2.45;;
64387;SDS011;50709;52.648;4.764;2023-07-29T12:31:47;4.68;;;2.33;;
64387;SDS011;50709;52.648;4.764;2023-07-29T12:34:19;5.50;;;2.30;;
64387;SDS011;50709;52.648;4.764;2023-07-29T12:36:49;5.50;;;2.40;;
64387;SDS011;50709;52.648;4.764;2023-07-29T12:39:23;3.72;;;2.08;;
64387;SDS011;50709;52.648;4.764;2023-07-29T12:41:49;3.92;;;2.00;;
64387;SDS011;50709;52.648;4.764;2023-07-29T12:44:17;4.13;;;1.95;;
64387;SDS011;50709;52.648;4.764;2023-07-29T12:46:43;3.83;;;2.10;;
64387;SDS011;50709;52.648;4.764;2023-07-29T12:49:10;4.47;;;1.73;;
64387;SDS011;50709;52.648;4.764;2023-07-29T12:51:37;4.53;;;2.00;;
64387;SDS011;50709;52.648;4.764;2023-07-29T12:54:03;4.65;;;2.30;;
64387;SDS011;50709;52.648;4.764;2023-07-29T12:56:30;4.75;;;2.22;;
64387;SDS011;50709;52.648;4.764;2023-07-29T12:58:56;5.25;;;1.90;;
64387;SDS011;50709;52.648;4.764;2023-07-29T13:01:25;8.93;;;3.17;;
64387;SDS011;50709;52.648;4.764;2023-07-29T13:03:51;4.05;;;1.83;;
64387;SDS011;50709;52.648;4.764;2023-07-29T13:06:17;3.47;;;1.60;;
64387;SDS011;50709;52.648;4.764;2023-07-29T13:08:42;4.55;;;2.30;;
64387;SDS011;50709;52.648;4.764;2023-07-29T13:11:09;3.70;;;1.90;;
64387;SDS011;50709;52.648;4.764;2023-07-29T13:13:34;2.90;;;1.80;;
64387;SDS011;50709;52.648;4.764;2023-07-29T13:16:00;3.78;;;1.88;;
64387;SDS011;50709;52.648;4.764;2023-07-29T13:18:26;5.93;;;2.03;;
64387;SDS011;50709;52.648;4.764;2023-07-29T13:20:53;5.63;;;2.00;;
64387;SDS011;50709;52.648;4.764;2023-07-29T13:23:20;4.70;;;1.77;;
64387;SDS011;50709;52.648;4.764;2023-07-29T13:25:45;4.28;;;1.90;;
64387;SDS011;50709;52.648;4.764;2023-07-29T13:28:11;3.33;;;1.70;;
64387;SDS011;50709;52.648;4.764;2023-07-29T13:30:38;2.88;;;1.50;;
64387;SDS011;50709;52.648;4.764;2023-07-29T13:33:04;3.13;;;1.88;;
64387;SDS011;50709;52.648;4.764;2023-07-29T13:35:30;3.70;;;1.83;;
64387;SDS011;50709;52.648;4.764;2023-07-29T13:37:55;4.10;;;1.70;;
64387;SDS011;50709;52.648;4.764;2023-07-29T13:40:21;3.60;;;1.60;;
64387;SDS011;50709;52.648;4.764;2023-07-29T13:42:46;4.65;;;2.00;;
64387;SDS011;50709;52.648;4.764;2023-07-29T13:45:13;3.22;;;1.95;;
64387;SDS011;50709;52.648;4.764;2023-07-29T13:47:58;2.88;;;1.38;;
64387;SDS011;50709;52.648;4.764;2023-07-29T13:50:24;3.72;;;1.80;;
64387;SDS011;50709;52.648;4.764;2023-07-29T13:52:49;3.35;;;1.63;;
64387;SDS011;50709;52.648;4.764;2023-07-29T13:55:15;7.93;;;1.80;;
64387;SDS011;50709;52.648;4.764;2023-07-29T13:57:40;3.35;;;1.90;;
64387;SDS011;50709;52.648;4.764;2023-07-29T14:00:06;4.57;;;1.65;;
64387;SDS011;50709;52.648;4.764;2023-07-29T14:02:32;3.30;;;2.30;;
64387;SDS011;50709;52.648;4.764;2023-07-29T14:05:18;5.00;;;2.00;;
64387;SDS011;50709;52.648;4.764;2023-07-29T14:07:43;6.20;;;2.92;;
64387;SDS011;50709;52.648;4.764;2023-07-29T14:10:09;8.60;;;3.03;;
64387;SDS011;50709;52.648;4.764;2023-07-29T14:12:34;3.78;;;2.08;;
64387;SDS011;50709;52.648;4.764;2023-07-29T14:15:00;3.78;;;2.05;;
64387;SDS011;50709;52.648;4.764;2023-07-29T14:17:26;5.95;;;2.78;;
64387;SDS011;50709;52.648;4.764;2023-07-29T14:19:51;5.25;;;2.45;;
64387;SDS011;50709;52.648;4.764;2023-07-29T14:22:17;5.28;;;2.20;;
64387;SDS011;50709;52.648;4.764;2023-07-29T14:24:42;4.55;;;2.80;;
64387;SDS011;50709;52.648;4.764;2023-07-29T14:27:08;5.78;;;3.15;;
64387;SDS011;50709;52.648;4.764;2023-07-29T14:29:34;5.75;;;2.67;;
64387;SDS011;50709;52.648;4.764;2023-07-29T14:32:03;6.95;;;2.53;;
64387;SDS011;50709;52.648;4.764;2023-07-29T14:34:29;4.45;;;2.35;;
64387;SDS011;50709;52.648;4.764;2023-07-29T14:36:55;6.20;;;3.22;;
64387;SDS011;50709;52.648;4.764;2023-07-29T14:39:20;4.80;;;2.42;;
64387;SDS011;50709;52.648;4.764;2023-07-29T14:41:45;4.45;;;2.70;;
64387;SDS011;50709;52.648;4.764;2023-07-29T14:44:11;6.32;;;4.13;;
64387;SDS011;50709;52.648;4.764;2023-07-29T14:46:36;3.90;;;2.08;;
64387;SDS011;50709;52.648;4.764;2023-07-29T14:49:02;5.15;;;2.38;;
64387;SDS011;50709;52.648;4.764;2023-07-29T14:51:27;4.28;;;2.30;;
64387;SDS011;50709;52.648;4.764;2023-07-29T14:53:52;4.15;;;2.55;;
64387;SDS011;50709;52.648;4.764;2023-07-29T14:56:18;7.25;;;2.67;;
64387;SDS011;50709;52.648;4.764;2023-07-29T14:58:44;4.20;;;2.63;;
64387;SDS011;50709;52.648;4.764;2023-07-29T15:01:10;4.00;;;2.30;;
64387;SDS011;50709;52.648;4.764;2023-07-29T15:03:35;4.88;;;2.30;;